sensor_id;sensor_type;location;lat;lon;timestamp;temperature;humidity
7822;DHT22;3956;50.558;9.678;2022-11-14T00:00:18;1.40;1.00
7822;DHT22;3956;50.558;9.678;2022-11-14T00:02:47;1.40;1.00
7822;DHT22;3956;50.558;9.678;2022-11-14T00:05:15;1.40;1.00
7822;DHT22;3956;50.558;9.678;2022-11-14T00:07:45;1.50;1.00
7822;DHT22;3956;50.558;9.678;2022-11-14T00:10:15;1.50;1.00
7822;DHT22;3956;50.558;9.678;2022-11-14T00:12:43;1.40;1.00
7822;DHT22;3956;50.558;9.678;2022-11-14T00:15:12;1.50;1.00
7822;DHT22;3956;50.558;9.678;2022-11-14T00:17:41;1.50;1.00
7822;DHT22;3956;50.558;9.678;2022-11-14T00:20:10;1.40;1.00
7822;DHT22;3956;50.558;9.678;2022-11-14T00:22:39;1.30;1.00
7822;DHT22;3956;50.558;9.678;2022-11-14T00:25:10;1.30;1.00
7822;DHT22;3956;50.558;9.678;2022-11-14T00:27:39;1.20;1.00
7822;DHT22;3956;50.558;9.678;2022-11-14T00:30:08;1.20;1.00
7822;DHT22;3956;50.558;9.678;2022-11-14T00:32:36;1.30;1.00
7822;DHT22;3956;50.558;9.678;2022-11-14T00:35:06;1.20;1.00
7822;DHT22;3956;50.558;9.678;2022-11-14T00:37:35;1.10;1.00
7822;DHT22;3956;50.558;9.678;2022-11-14T00:40:04;1.10;1.00
7822;DHT22;3956;50.558;9.678;2022-11-14T00:42:34;1.10;1.00
7822;DHT22;3956;50.558;9.678;2022-11-14T00:45:03;1.20;1.00
7822;DHT22;3956;50.558;9.678;2022-11-14T00:47:31;1.20;1.00
7822;DHT22;3956;50.558;9.678;2022-11-14T00:49:59;1.20;1.00
7822;DHT22;3956;50.558;9.678;2022-11-14T00:52:27;1.20;1.00
7822;DHT22;3956;50.558;9.678;2022-11-14T00:54:56;1.30;1.00
7822;DHT22;3956;50.558;9.678;2022-11-14T00:57:24;1.30;1.00
7822;DHT22;3956;50.558;9.678;2022-11-14T00:59:54;1.30;1.00
7822;DHT22;3956;50.558;9.678;2022-11-14T01:02:22;1.40;1.00
7822;DHT22;3956;50.558;9.678;2022-11-14T01:04:51;1.40;1.00
7822;DHT22;3956;50.558;9.678;2022-11-14T01:07:19;1.50;1.00
7822;DHT22;3956;50.558;9.678;2022-11-14T01:09:48;1.40;1.00
7822;DHT22;3956;50.558;9.678;2022-11-14T01:12:16;1.30;1.00
7822;DHT22;3956;50.558;9.678;2022-11-14T01:14:44;1.30;1.00
7822;DHT22;3956;50.558;9.678;2022-11-14T01:17:14;1.20;1.00
7822;DHT22;3956;50.558;9.678;2022-11-14T01:19:42;1.30;1.00
7822;DHT22;3956;50.558;9.678;2022-11-14T01:22:11;1.30;1.00
7822;DHT22;3956;50.558;9.678;2022-11-14T01:24:39;1.40;1.00
7822;DHT22;3956;50.558;9.678;2022-11-14T01:27:07;1.40;1.00
7822;DHT22;3956;50.558;9.678;2022-11-14T01:29:35;1.30;1.00
7822;DHT22;3956;50.558;9.678;2022-11-14T01:32:04;1.40;1.00
7822;DHT22;3956;50.558;9.678;2022-11-14T01:34:33;1.40;1.00
7822;DHT22;3956;50.558;9.678;2022-11-14T01:37:02;1.50;1.00
7822;DHT22;3956;50.558;9.678;2022-11-14T01:39:30;1.30;1.00
7822;DHT22;3956;50.558;9.678;2022-11-14T01:41:58;1.50;1.00
7822;DHT22;3956;50.558;9.678;2022-11-14T01:44:44;1.40;1.00
7822;DHT22;3956;50.558;9.678;2022-11-14T01:47:17;1.50;1.00
7822;DHT22;3956;50.558;9.678;2022-11-14T01:49:50;1.50;1.00
7822;DHT22;3956;50.558;9.678;2022-11-14T01:52:21;1.30;1.00
7822;DHT22;3956;50.558;9.678;2022-11-14T01:54:53;1.30;1.00
7822;DHT22;3956;50.558;9.678;2022-11-14T01:57:25;1.30;1.00
7822;DHT22;3956;50.558;9.678;2022-11-14T01:59:57;1.40;1.00
7822;DHT22;3956;50.558;9.678;2022-11-14T02:02:26;1.30;1.00
7822;DHT22;3956;50.558;9.678;2022-11-14T02:04:59;1.30;1.00
7822;DHT22;3956;50.558;9.678;2022-11-14T02:07:32;1.30;1.00
7822;DHT22;3956;50.558;9.678;2022-11-14T02:10:05;1.40;1.00
7822;DHT22;3956;50.558;9.678;2022-11-14T02:12:34;1.30;1.00
7822;DHT22;3956;50.558;9.678;2022-11-14T02:15:04;1.40;1.00
7822;DHT22;3956;50.558;9.678;2022-11-14T02:17:32;1.50;1.00
7822;DHT22;3956;50.558;9.678;2022-11-14T02:20:20;1.40;1.00
7822;DHT22;3956;50.558;9.678;2022-11-14T02:22:48;1.40;1.00
7822;DHT22;3956;50.558;9.678;2022-11-14T02:25:17;1.30;1.00
7822;DHT22;3956;50.558;9.678;2022-11-14T02:27:46;1.30;1.00
7822;DHT22;3956;50.558;9.678;2022-11-14T02:30:16;1.30;1.00
7822;DHT22;3956;50.558;9.678;2022-11-14T02:32:45;1.20;1.00
7822;DHT22;3956;50.558;9.678;2022-11-14T02:35:35;1.20;1.00
7822;DHT22;3956;50.558;9.678;2022-11-14T02:38:03;1.10;1.00
7822;DHT22;3956;50.558;9.678;2022-11-14T02:40:31;1.20;1.00
7822;DHT22;3956;50.558;9.678;2022-11-14T02:43:00;1.20;1.00
7822;DHT22;3956;50.558;9.678;2022-11-14T02:45:28;1.30;1.00
7822;DHT22;3956;50.558;9.678;2022-11-14T02:47:57;1.40;1.00
7822;DHT22;3956;50.558;9.678;2022-11-14T02:50:25;1.40;1.00
7822;DHT22;3956;50.558;9.678;2022-11-14T02:52:55;1.40;1.00
7822;DHT22;3956;50.558;9.678;2022-11-14T02:55:23;1.40;1.00
7822;DHT22;3956;50.558;9.678;2022-11-14T02:57:52;1.30;1.00
7822;DHT22;3956;50.558;9.678;2022-11-14T03:00:21;1.30;1.00
7822;DHT22;3956;50.558;9.678;2022-11-14T03:02:57;1.30;1.00
7822;DHT22;3956;50.558;9.678;2022-11-14T03:05:26;1.30;1.00
7822;DHT22;3956;50.558;9.678;2022-11-14T03:07:57;1.30;1.00
7822;DHT22;3956;50.558;9.678;2022-11-14T03:10:26;1.30;1.00
7822;DHT22;3956;50.558;9.678;2022-11-14T03:12:56;1.30;1.00
7822;DHT22;3956;50.558;9.678;2022-11-14T03:15:29;1.10;1.00
7822;DHT22;3956;50.558;9.678;2022-11-14T03:18:00;1.20;1.00
7822;DHT22;3956;50.558;9.678;2022-11-14T03:20:31;1.10;1.00
7822;DHT22;3956;50.558;9.678;2022-11-14T03:23:06;1.20;1.00
7822;DHT22;3956;50.558;9.678;2022-11-14T03:25:34;1.30;1.00
7822;DHT22;3956;50.558;9.678;2022-11-14T03:28:03;1.40;1.00
7822;DHT22;3956;50.558;9.678;2022-11-14T03:30:33;1.20;1.00
7822;DHT22;3956;50.558;9.678;2022-11-14T03:33:06;1.20;1.00
7822;DHT22;3956;50.558;9.678;2022-11-14T03:36:01;1.20;1.00
7822;DHT22;3956;50.558;9.678;2022-11-14T03:38:42;1.20;1.00
7822;DHT22;3956;50.558;9.678;2022-11-14T03:41:12;1.10;1.00
7822;DHT22;3956;50.558;9.678;2022-11-14T03:43:41;1.10;1.00
7822;DHT22;3956;50.558;9.678;2022-11-14T03:46:09;1.10;1.00
7822;DHT22;3956;50.558;9.678;2022-11-14T03:48:39;1.10;1.00
7822;DHT22;3956;50.558;9.678;2022-11-14T03:51:08;1.10;1.00
7822;DHT22;3956;50.558;9.678;2022-11-14T03:53:44;1.00;1.00
7822;DHT22;3956;50.558;9.678;2022-11-14T03:56:15;1.00;1.00
7822;DHT22;3956;50.558;9.678;2022-11-14T03:58:44;0.90;1.00
7822;DHT22;3956;50.558;9.678;2022-11-14T04:01:13;1.00;1.00
7822;DHT22;3956;50.558;9.678;2022-11-14T04:03:42;1.10;1.00
7822;DHT22;3956;50.558;9.678;2022-11-14T04:06:12;1.00;1.00
7822;DHT22;3956;50.558;9.678;2022-11-14T04:08:42;0.80;1.00
7822;DHT22;3956;50.558;9.678;2022-11-14T04:11:12;0.80;1.00
7822;DHT22;3956;50.558;9.678;2022-11-14T04:13:41;0.80;1.00
7822;DHT22;3956;50.558;9.678;2022-11-14T04:16:10;0.90;1.00
7822;DHT22;3956;50.558;9.678;2022-11-14T04:18:39;0.90;5.90
7822;DHT22;3956;50.558;9.678;2022-11-14T04:21:08;1.00;18.90
7822;DHT22;3956;50.558;9.678;2022-11-14T04:23:36;0.80;23.70
7822;DHT22;3956;50.558;9.678;2022-11-14T04:26:11;0.80;42.50
7822;DHT22;3956;50.558;9.678;2022-11-14T04:28:44;1.00;86.40
7822;DHT22;3956;50.558;9.678;2022-11-14T04:31:13;0.90;93.10
7822;DHT22;3956;50.558;9.678;2022-11-14T04:33:42;0.90;97.40
7822;DHT22;3956;50.558;9.678;2022-11-14T04:36:23;0.90;99.40
7822;DHT22;3956;50.558;9.678;2022-11-14T04:39:26;0.90;99.90
7822;DHT22;3956;50.558;9.678;2022-11-14T04:42:02;1.00;1.00
7822;DHT22;3956;50.558;9.678;2022-11-14T04:44:37;1.00;1.00
7822;DHT22;3956;50.558;9.678;2022-11-14T04:47:06;1.10;1.00
7822;DHT22;3956;50.558;9.678;2022-11-14T04:49:41;1.00;99.90
7822;DHT22;3956;50.558;9.678;2022-11-14T04:52:14;0.90;99.90
7822;DHT22;3956;50.558;9.678;2022-11-14T04:54:45;0.90;99.90
7822;DHT22;3956;50.558;9.678;2022-11-14T04:57:15;1.10;1.00
7822;DHT22;3956;50.558;9.678;2022-11-14T04:59:46;1.00;99.90
7822;DHT22;3956;50.558;9.678;2022-11-14T05:02:15;1.00;99.90
7822;DHT22;3956;50.558;9.678;2022-11-14T05:04:43;1.00;99.90
7822;DHT22;3956;50.558;9.678;2022-11-14T05:07:14;1.10;1.00
7822;DHT22;3956;50.558;9.678;2022-11-14T05:09:47;1.10;99.90
7822;DHT22;3956;50.558;9.678;2022-11-14T05:12:27;1.10;99.90
7822;DHT22;3956;50.558;9.678;2022-11-14T05:14:57;1.00;99.90
7822;DHT22;3956;50.558;9.678;2022-11-14T05:17:28;1.00;99.90
7822;DHT22;3956;50.558;9.678;2022-11-14T05:19:59;1.00;99.90
7822;DHT22;3956;50.558;9.678;2022-11-14T05:22:34;0.90;99.90
7822;DHT22;3956;50.558;9.678;2022-11-14T05:25:07;0.90;99.90
7822;DHT22;3956;50.558;9.678;2022-11-14T05:27:40;0.90;99.90
7822;DHT22;3956;50.558;9.678;2022-11-14T05:30:10;1.00;99.90
7822;DHT22;3956;50.558;9.678;2022-11-14T05:32:42;1.00;1.00
7822;DHT22;3956;50.558;9.678;2022-11-14T05:35:11;1.10;1.00
7822;DHT22;3956;50.558;9.678;2022-11-14T05:37:40;1.10;1.00
7822;DHT22;3956;50.558;9.678;2022-11-14T05:40:09;1.00;1.00
7822;DHT22;3956;50.558;9.678;2022-11-14T05:42:40;1.10;1.00
7822;DHT22;3956;50.558;9.678;2022-11-14T05:45:09;1.20;1.00
7822;DHT22;3956;50.558;9.678;2022-11-14T05:47:46;1.20;1.00
7822;DHT22;3956;50.558;9.678;2022-11-14T05:50:30;1.20;99.90
7822;DHT22;3956;50.558;9.678;2022-11-14T05:52:59;1.10;99.90
7822;DHT22;3956;50.558;9.678;2022-11-14T05:55:27;1.20;1.00
7822;DHT22;3956;50.558;9.678;2022-11-14T05:57:58;1.30;99.90
7822;DHT22;3956;50.558;9.678;2022-11-14T06:00:27;1.20;99.90
7822;DHT22;3956;50.558;9.678;2022-11-14T06:03:04;1.10;99.90
7822;DHT22;3956;50.558;9.678;2022-11-14T06:05:33;1.10;1.00
7822;DHT22;3956;50.558;9.678;2022-11-14T06:08:02;1.00;99.90
7822;DHT22;3956;50.558;9.678;2022-11-14T06:10:35;0.90;99.90
7822;DHT22;3956;50.558;9.678;2022-11-14T06:13:08;0.90;99.90
7822;DHT22;3956;50.558;9.678;2022-11-14T06:15:36;0.80;1.00
7822;DHT22;3956;50.558;9.678;2022-11-14T06:18:07;0.90;1.00
7822;DHT22;3956;50.558;9.678;2022-11-14T06:20:36;1.10;1.00
7822;DHT22;3956;50.558;9.678;2022-11-14T06:23:07;1.00;1.00
7822;DHT22;3956;50.558;9.678;2022-11-14T06:26:09;1.00;1.00
7822;DHT22;3956;50.558;9.678;2022-11-14T06:32:06;1.00;1.00
7822;DHT22;3956;50.558;9.678;2022-11-14T06:34:35;1.00;1.00
7822;DHT22;3956;50.558;9.678;2022-11-14T06:37:07;1.00;1.00
7822;DHT22;3956;50.558;9.678;2022-11-14T06:39:57;0.90;1.00
7822;DHT22;3956;50.558;9.678;2022-11-14T06:43:11;1.00;1.00
7822;DHT22;3956;50.558;9.678;2022-11-14T06:46:02;1.00;1.00
7822;DHT22;3956;50.558;9.678;2022-11-14T06:48:45;0.80;1.00
7822;DHT22;3956;50.558;9.678;2022-11-14T06:51:15;1.00;1.00
7822;DHT22;3956;50.558;9.678;2022-11-14T06:53:47;0.90;1.00
7822;DHT22;3956;50.558;9.678;2022-11-14T06:56:21;1.00;1.00
7822;DHT22;3956;50.558;9.678;2022-11-14T06:59:37;1.00;1.00
7822;DHT22;3956;50.558;9.678;2022-11-14T07:03:00;1.10;1.00
7822;DHT22;3956;50.558;9.678;2022-11-14T07:05:32;1.10;1.00
7822;DHT22;3956;50.558;9.678;2022-11-14T07:08:01;1.20;1.00
7822;DHT22;3956;50.558;9.678;2022-11-14T07:10:29;1.30;1.00
7822;DHT22;3956;50.558;9.678;2022-11-14T07:12:57;1.20;99.90
7822;DHT22;3956;50.558;9.678;2022-11-14T07:15:30;1.20;99.90
7822;DHT22;3956;50.558;9.678;2022-11-14T07:18:08;1.00;99.90
7822;DHT22;3956;50.558;9.678;2022-11-14T07:20:49;1.00;99.90
7822;DHT22;3956;50.558;9.678;2022-11-14T07:23:34;1.00;99.90
7822;DHT22;3956;50.558;9.678;2022-11-14T07:26:12;1.20;99.90
7822;DHT22;3956;50.558;9.678;2022-11-14T07:28:43;1.20;99.90
7822;DHT22;3956;50.558;9.678;2022-11-14T07:31:20;1.20;99.90
7822;DHT22;3956;50.558;9.678;2022-11-14T07:33:48;1.30;99.90
7822;DHT22;3956;50.558;9.678;2022-11-14T07:36:26;1.20;99.90
7822;DHT22;3956;50.558;9.678;2022-11-14T07:42:48;1.30;1.00
7822;DHT22;3956;50.558;9.678;2022-11-14T07:45:24;1.50;1.00
7822;DHT22;3956;50.558;9.678;2022-11-14T07:48:08;1.50;99.90
7822;DHT22;3956;50.558;9.678;2022-11-14T07:50:52;1.90;99.90
7822;DHT22;3956;50.558;9.678;2022-11-14T07:53:42;1.90;29.10
7822;DHT22;3956;50.558;9.678;2022-11-14T07:56:39;1.70;1.00
7822;DHT22;3956;50.558;9.678;2022-11-14T07:59:19;1.50;7.90
7822;DHT22;3956;50.558;9.678;2022-11-14T08:01:50;1.50;1.00
7822;DHT22;3956;50.558;9.678;2022-11-14T08:04:18;1.50;2.30
7822;DHT22;3956;50.558;9.678;2022-11-14T08:06:47;1.50;1.00
7822;DHT22;3956;50.558;9.678;2022-11-14T08:09:16;1.50;41.10
7822;DHT22;3956;50.558;9.678;2022-11-14T08:11:45;1.60;25.00
7822;DHT22;3956;50.558;9.678;2022-11-14T08:14:16;1.50;22.70
7822;DHT22;3956;50.558;9.678;2022-11-14T08:16:44;1.70;1.00
7822;DHT22;3956;50.558;9.678;2022-11-14T08:19:12;1.80;1.00
7822;DHT22;3956;50.558;9.678;2022-11-14T08:21:43;1.90;1.00
7822;DHT22;3956;50.558;9.678;2022-11-14T08:24:13;2.00;1.00
7822;DHT22;3956;50.558;9.678;2022-11-14T08:26:48;2.00;1.00
7822;DHT22;3956;50.558;9.678;2022-11-14T08:29:26;2.10;1.00
7822;DHT22;3956;50.558;9.678;2022-11-14T08:35:49;2.60;1.00
7822;DHT22;3956;50.558;9.678;2022-11-14T08:38:22;2.70;1.00
7822;DHT22;3956;50.558;9.678;2022-11-14T08:40:52;2.80;1.00
7822;DHT22;3956;50.558;9.678;2022-11-14T08:43:31;2.70;1.00
7822;DHT22;3956;50.558;9.678;2022-11-14T08:46:10;2.70;1.00
7822;DHT22;3956;50.558;9.678;2022-11-14T08:49:13;2.80;1.00
7822;DHT22;3956;50.558;9.678;2022-11-14T08:52:17;2.80;1.00
7822;DHT22;3956;50.558;9.678;2022-11-14T08:55:28;3.00;1.00
7822;DHT22;3956;50.558;9.678;2022-11-14T08:58:37;3.20;1.00
7822;DHT22;3956;50.558;9.678;2022-11-14T09:01:06;3.40;1.00
7822;DHT22;3956;50.558;9.678;2022-11-14T09:03:34;3.60;1.00
7822;DHT22;3956;50.558;9.678;2022-11-14T09:06:18;3.70;1.00
7822;DHT22;3956;50.558;9.678;2022-11-14T09:09:59;3.80;1.00
7822;DHT22;3956;50.558;9.678;2022-11-14T09:13:06;4.10;1.00
7822;DHT22;3956;50.558;9.678;2022-11-14T09:15:36;4.20;1.00
7822;DHT22;3956;50.558;9.678;2022-11-14T09:18:10;4.30;1.00
7822;DHT22;3956;50.558;9.678;2022-11-14T09:20:42;4.40;1.00
7822;DHT22;3956;50.558;9.678;2022-11-14T09:23:17;4.60;1.00
7822;DHT22;3956;50.558;9.678;2022-11-14T09:29:19;4.80;1.00
7822;DHT22;3956;50.558;9.678;2022-11-14T09:32:04;4.90;1.00
7822;DHT22;3956;50.558;9.678;2022-11-14T09:34:35;5.10;1.00
7822;DHT22;3956;50.558;9.678;2022-11-14T09:37:19;5.30;1.00
7822;DHT22;3956;50.558;9.678;2022-11-14T09:43:51;5.60;1.00
7822;DHT22;3956;50.558;9.678;2022-11-14T09:46:59;5.70;1.00
7822;DHT22;3956;50.558;9.678;2022-11-14T09:49:58;5.80;1.00
7822;DHT22;3956;50.558;9.678;2022-11-14T09:52:59;5.90;1.00
7822;DHT22;3956;50.558;9.678;2022-11-14T09:55:31;5.90;1.00
7822;DHT22;3956;50.558;9.678;2022-11-14T09:58:03;6.10;1.00
7822;DHT22;3956;50.558;9.678;2022-11-14T10:00:44;6.20;1.00
7822;DHT22;3956;50.558;9.678;2022-11-14T10:03:22;6.30;1.00
7822;DHT22;3956;50.558;9.678;2022-11-14T10:06:30;6.40;1.00
7822;DHT22;3956;50.558;9.678;2022-11-14T10:09:26;6.50;1.00
7822;DHT22;3956;50.558;9.678;2022-11-14T10:12:08;6.60;1.00
7822;DHT22;3956;50.558;9.678;2022-11-14T10:15:23;6.60;1.00
7822;DHT22;3956;50.558;9.678;2022-11-14T10:18:59;6.80;1.00
7822;DHT22;3956;50.558;9.678;2022-11-14T10:22:10;6.90;1.00
7822;DHT22;3956;50.558;9.678;2022-11-14T10:25:02;7.00;1.00
7822;DHT22;3956;50.558;9.678;2022-11-14T10:28:02;7.10;1.00
7822;DHT22;3956;50.558;9.678;2022-11-14T10:30:47;7.20;1.00
7822;DHT22;3956;50.558;9.678;2022-11-14T10:33:33;7.40;1.00
7822;DHT22;3956;50.558;9.678;2022-11-14T10:39:52;7.70;1.00
7822;DHT22;3956;50.558;9.678;2022-11-14T10:42:28;7.90;1.00
7822;DHT22;3956;50.558;9.678;2022-11-14T10:45:03;7.90;1.00
7822;DHT22;3956;50.558;9.678;2022-11-14T10:47:45;8.10;1.00
7822;DHT22;3956;50.558;9.678;2022-11-14T10:50:19;8.20;1.00
7822;DHT22;3956;50.558;9.678;2022-11-14T10:52:55;8.30;1.00
7822;DHT22;3956;50.558;9.678;2022-11-14T10:55:33;8.30;1.00
7822;DHT22;3956;50.558;9.678;2022-11-14T10:58:31;8.20;1.00
7822;DHT22;3956;50.558;9.678;2022-11-14T11:01:34;8.20;1.00
7822;DHT22;3956;50.558;9.678;2022-11-14T11:04:27;8.40;1.00
7822;DHT22;3956;50.558;9.678;2022-11-14T11:07:26;8.50;1.00
7822;DHT22;3956;50.558;9.678;2022-11-14T11:10:28;8.50;1.00
7822;DHT22;3956;50.558;9.678;2022-11-14T11:13:34;8.50;1.00
7822;DHT22;3956;50.558;9.678;2022-11-14T11:16:08;9.00;1.00
7822;DHT22;3956;50.558;9.678;2022-11-14T11:19:22;9.10;1.00
7822;DHT22;3956;50.558;9.678;2022-11-14T11:22:27;9.10;1.00
7822;DHT22;3956;50.558;9.678;2022-11-14T11:25:34;9.10;1.00
7822;DHT22;3956;50.558;9.678;2022-11-14T11:28:22;9.30;1.00
7822;DHT22;3956;50.558;9.678;2022-11-14T11:31:06;9.30;1.00
7822;DHT22;3956;50.558;9.678;2022-11-14T11:33:42;9.40;1.00
7822;DHT22;3956;50.558;9.678;2022-11-14T11:36:21;9.40;1.00
7822;DHT22;3956;50.558;9.678;2022-11-14T11:39:04;9.50;1.00
7822;DHT22;3956;50.558;9.678;2022-11-14T11:41:35;9.50;1.00
7822;DHT22;3956;50.558;9.678;2022-11-14T11:44:33;9.80;1.00
7822;DHT22;3956;50.558;9.678;2022-11-14T11:47:08;10.10;1.00
7822;DHT22;3956;50.558;9.678;2022-11-14T11:49:45;10.20;1.00
7822;DHT22;3956;50.558;9.678;2022-11-14T11:52:29;10.30;1.00
7822;DHT22;3956;50.558;9.678;2022-11-14T11:55:24;10.50;1.00
7822;DHT22;3956;50.558;9.678;2022-11-14T11:58:25;10.80;1.00
7822;DHT22;3956;50.558;9.678;2022-11-14T12:01:02;10.80;1.00
7822;DHT22;3956;50.558;9.678;2022-11-14T12:03:41;10.90;1.00
7822;DHT22;3956;50.558;9.678;2022-11-14T12:06:16;11.00;1.00
7822;DHT22;3956;50.558;9.678;2022-11-14T12:09:10;10.90;1.00
7822;DHT22;3956;50.558;9.678;2022-11-14T12:12:27;10.70;1.00
7822;DHT22;3956;50.558;9.678;2022-11-14T12:15:31;10.80;1.00
7822;DHT22;3956;50.558;9.678;2022-11-14T12:18:17;11.00;1.00
7822;DHT22;3956;50.558;9.678;2022-11-14T12:24:44;11.20;1.00
7822;DHT22;3956;50.558;9.678;2022-11-14T12:31:23;11.00;1.00
7822;DHT22;3956;50.558;9.678;2022-11-14T12:34:12;11.10;1.00
7822;DHT22;3956;50.558;9.678;2022-11-14T12:37:25;11.30;1.00
7822;DHT22;3956;50.558;9.678;2022-11-14T12:40:31;11.20;1.00
7822;DHT22;3956;50.558;9.678;2022-11-14T12:43:34;11.20;1.00
7822;DHT22;3956;50.558;9.678;2022-11-14T12:50:09;11.30;1.00
7822;DHT22;3956;50.558;9.678;2022-11-14T12:52:58;11.20;1.00
7822;DHT22;3956;50.558;9.678;2022-11-14T12:55:53;11.20;1.00
7822;DHT22;3956;50.558;9.678;2022-11-14T12:58:44;11.20;1.00
7822;DHT22;3956;50.558;9.678;2022-11-14T13:01:39;11.30;1.00
7822;DHT22;3956;50.558;9.678;2022-11-14T13:05:17;11.30;1.00
7822;DHT22;3956;50.558;9.678;2022-11-14T13:08:42;11.20;1.00
7822;DHT22;3956;50.558;9.678;2022-11-14T13:11:39;11.30;1.00
7822;DHT22;3956;50.558;9.678;2022-11-14T13:14:50;11.30;1.00
7822;DHT22;3956;50.558;9.678;2022-11-14T13:18:17;11.30;1.00
7822;DHT22;3956;50.558;9.678;2022-11-14T13:21:19;11.20;1.00
7822;DHT22;3956;50.558;9.678;2022-11-14T13:24:14;11.20;1.00
7822;DHT22;3956;50.558;9.678;2022-11-14T13:26:50;11.20;1.00
7822;DHT22;3956;50.558;9.678;2022-11-14T13:29:47;11.20;1.00
7822;DHT22;3956;50.558;9.678;2022-11-14T13:35:48;11.50;1.00
7822;DHT22;3956;50.558;9.678;2022-11-14T13:39:05;11.50;1.00
7822;DHT22;3956;50.558;9.678;2022-11-14T13:42:30;11.60;1.00
7822;DHT22;3956;50.558;9.678;2022-11-14T13:45:51;11.40;1.00
7822;DHT22;3956;50.558;9.678;2022-11-14T13:49:38;11.40;1.00
7822;DHT22;3956;50.558;9.678;2022-11-14T13:52:48;11.30;1.00
7822;DHT22;3956;50.558;9.678;2022-11-14T13:55:54;11.40;1.00
7822;DHT22;3956;50.558;9.678;2022-11-14T13:58:50;11.40;1.00
7822;DHT22;3956;50.558;9.678;2022-11-14T14:04:46;11.30;1.00
7822;DHT22;3956;50.558;9.678;2022-11-14T14:07:25;11.20;1.00
7822;DHT22;3956;50.558;9.678;2022-11-14T14:10:14;11.10;1.00
7822;DHT22;3956;50.558;9.678;2022-11-14T14:13:25;11.10;1.00
7822;DHT22;3956;50.558;9.678;2022-11-14T14:16:32;11.10;1.00
7822;DHT22;3956;50.558;9.678;2022-11-14T14:19:11;11.00;1.00
7822;DHT22;3956;50.558;9.678;2022-11-14T14:22:01;11.00;1.00
7822;DHT22;3956;50.558;9.678;2022-11-14T14:25:02;10.90;1.00
7822;DHT22;3956;50.558;9.678;2022-11-14T14:27:39;11.00;1.00
7822;DHT22;3956;50.558;9.678;2022-11-14T14:30:16;11.00;1.00
7822;DHT22;3956;50.558;9.678;2022-11-14T14:33:11;11.00;1.00
7822;DHT22;3956;50.558;9.678;2022-11-14T14:35:53;10.90;1.00
7822;DHT22;3956;50.558;9.678;2022-11-14T14:39:24;10.90;1.00
7822;DHT22;3956;50.558;9.678;2022-11-14T14:42:54;11.00;1.00
7822;DHT22;3956;50.558;9.678;2022-11-14T14:45:47;10.90;1.00
7822;DHT22;3956;50.558;9.678;2022-11-14T14:48:59;10.70;1.00
7822;DHT22;3956;50.558;9.678;2022-11-14T14:51:41;10.70;1.00
7822;DHT22;3956;50.558;9.678;2022-11-14T14:54:23;10.60;1.00
7822;DHT22;3956;50.558;9.678;2022-11-14T14:57:01;10.60;1.00
7822;DHT22;3956;50.558;9.678;2022-11-14T14:59:33;10.40;1.00
7822;DHT22;3956;50.558;9.678;2022-11-14T15:02:02;10.30;1.00
7822;DHT22;3956;50.558;9.678;2022-11-14T15:04:35;10.20;1.00
7822;DHT22;3956;50.558;9.678;2022-11-14T15:07:17;10.30;1.00
7822;DHT22;3956;50.558;9.678;2022-11-14T15:09:53;10.10;1.00
7822;DHT22;3956;50.558;9.678;2022-11-14T15:12:24;10.20;1.00
7822;DHT22;3956;50.558;9.678;2022-11-14T15:14:59;10.10;1.00
7822;DHT22;3956;50.558;9.678;2022-11-14T15:17:55;10.10;1.00
7822;DHT22;3956;50.558;9.678;2022-11-14T15:21:27;10.10;1.00
7822;DHT22;3956;50.558;9.678;2022-11-14T15:24:22;10.30;1.00
7822;DHT22;3956;50.558;9.678;2022-11-14T15:26:52;10.30;1.00
7822;DHT22;3956;50.558;9.678;2022-11-14T15:29:28;10.30;1.00
7822;DHT22;3956;50.558;9.678;2022-11-14T15:32:17;10.40;1.00
7822;DHT22;3956;50.558;9.678;2022-11-14T15:35:06;10.50;1.00
7822;DHT22;3956;50.558;9.678;2022-11-14T15:41:41;10.40;1.00
7822;DHT22;3956;50.558;9.678;2022-11-14T15:44:31;10.40;1.00
7822;DHT22;3956;50.558;9.678;2022-11-14T15:47:01;10.30;1.00
7822;DHT22;3956;50.558;9.678;2022-11-14T15:50:27;10.20;1.00
7822;DHT22;3956;50.558;9.678;2022-11-14T15:53:44;10.20;1.00
7822;DHT22;3956;50.558;9.678;2022-11-14T15:56:17;10.10;1.00
7822;DHT22;3956;50.558;9.678;2022-11-14T15:59:07;10.20;1.00
7822;DHT22;3956;50.558;9.678;2022-11-14T16:01:37;10.10;1.00
7822;DHT22;3956;50.558;9.678;2022-11-14T16:04:08;10.00;1.00
7822;DHT22;3956;50.558;9.678;2022-11-14T16:06:39;10.00;1.00
7822;DHT22;3956;50.558;9.678;2022-11-14T16:09:25;10.00;1.00
7822;DHT22;3956;50.558;9.678;2022-11-14T16:11:55;10.30;1.00
7822;DHT22;3956;50.558;9.678;2022-11-14T16:14:31;10.40;1.00
7822;DHT22;3956;50.558;9.678;2022-11-14T16:17:13;10.30;1.00
7822;DHT22;3956;50.558;9.678;2022-11-14T16:19:42;10.30;1.00
7822;DHT22;3956;50.558;9.678;2022-11-14T16:22:15;10.30;1.00
7822;DHT22;3956;50.558;9.678;2022-11-14T16:24:44;10.20;1.00
7822;DHT22;3956;50.558;9.678;2022-11-14T16:27:21;10.20;1.00
7822;DHT22;3956;50.558;9.678;2022-11-14T16:29:55;10.20;1.00
7822;DHT22;3956;50.558;9.678;2022-11-14T16:32:30;10.20;1.00
7822;DHT22;3956;50.558;9.678;2022-11-14T16:35:04;10.20;1.00
7822;DHT22;3956;50.558;9.678;2022-11-14T16:37:38;10.30;1.00
7822;DHT22;3956;50.558;9.678;2022-11-14T16:40:29;10.20;1.00
7822;DHT22;3956;50.558;9.678;2022-11-14T16:43:04;10.10;1.00
7822;DHT22;3956;50.558;9.678;2022-11-14T16:45:42;10.10;1.00
7822;DHT22;3956;50.558;9.678;2022-11-14T16:48:13;10.20;1.00
7822;DHT22;3956;50.558;9.678;2022-11-14T16:50:49;10.10;1.00
7822;DHT22;3956;50.558;9.678;2022-11-14T16:53:39;10.20;1.00
7822;DHT22;3956;50.558;9.678;2022-11-14T16:56:10;10.40;1.00
7822;DHT22;3956;50.558;9.678;2022-11-14T16:58:40;10.40;1.00
7822;DHT22;3956;50.558;9.678;2022-11-14T17:01:18;10.40;1.00
7822;DHT22;3956;50.558;9.678;2022-11-14T17:04:23;10.30;1.00
7822;DHT22;3956;50.558;9.678;2022-11-14T17:07:34;10.30;1.00
7822;DHT22;3956;50.558;9.678;2022-11-14T17:10:06;10.30;1.00
7822;DHT22;3956;50.558;9.678;2022-11-14T17:13:20;10.30;1.00
7822;DHT22;3956;50.558;9.678;2022-11-14T17:15:55;10.50;1.00
7822;DHT22;3956;50.558;9.678;2022-11-14T17:18:54;10.50;1.00
7822;DHT22;3956;50.558;9.678;2022-11-14T17:21:29;10.40;1.00
7822;DHT22;3956;50.558;9.678;2022-11-14T17:24:12;10.40;1.00
7822;DHT22;3956;50.558;9.678;2022-11-14T17:26:43;10.40;1.00
7822;DHT22;3956;50.558;9.678;2022-11-14T17:29:18;10.40;1.00
7822;DHT22;3956;50.558;9.678;2022-11-14T17:31:58;10.40;1.00
7822;DHT22;3956;50.558;9.678;2022-11-14T17:34:42;10.30;1.00
7822;DHT22;3956;50.558;9.678;2022-11-14T17:37:33;10.30;1.00
7822;DHT22;3956;50.558;9.678;2022-11-14T17:40:47;10.40;1.00
7822;DHT22;3956;50.558;9.678;2022-11-14T17:44:14;10.40;1.00
7822;DHT22;3956;50.558;9.678;2022-11-14T17:50:54;10.40;1.00
7822;DHT22;3956;50.558;9.678;2022-11-14T17:54:10;10.40;1.00
7822;DHT22;3956;50.558;9.678;2022-11-14T17:57:28;10.30;1.00
7822;DHT22;3956;50.558;9.678;2022-11-14T18:00:02;10.30;1.00
7822;DHT22;3956;50.558;9.678;2022-11-14T18:02:33;10.40;1.00
7822;DHT22;3956;50.558;9.678;2022-11-14T18:05:04;10.40;1.00
7822;DHT22;3956;50.558;9.678;2022-11-14T18:08:00;10.30;1.00
7822;DHT22;3956;50.558;9.678;2022-11-14T18:11:23;10.40;1.00
7822;DHT22;3956;50.558;9.678;2022-11-14T18:14:30;10.50;1.00
7822;DHT22;3956;50.558;9.678;2022-11-14T18:17:10;10.60;1.00
7822;DHT22;3956;50.558;9.678;2022-11-14T18:20:24;10.50;1.00
7822;DHT22;3956;50.558;9.678;2022-11-14T18:27:25;10.60;1.00
7822;DHT22;3956;50.558;9.678;2022-11-14T18:29:56;10.60;1.00
7822;DHT22;3956;50.558;9.678;2022-11-14T18:33:06;10.60;1.00
7822;DHT22;3956;50.558;9.678;2022-11-14T18:36:03;10.60;1.00
7822;DHT22;3956;50.558;9.678;2022-11-14T18:38:42;10.70;1.00
7822;DHT22;3956;50.558;9.678;2022-11-14T18:41:12;10.70;1.00
7822;DHT22;3956;50.558;9.678;2022-11-14T18:43:44;10.70;1.00
7822;DHT22;3956;50.558;9.678;2022-11-14T18:46:14;10.80;1.00
7822;DHT22;3956;50.558;9.678;2022-11-14T18:48:50;10.70;1.00
7822;DHT22;3956;50.558;9.678;2022-11-14T18:51:21;10.80;1.00